Aviation Digital Data Service (ADDS)

Output produced by METARs form (1028 UTC 18 October 2018)
found at http://www.aviationweather.gov/metar/data/
 
ORMM 180900Z 32004KT CAVOK 35/10 Q1012 NOSIG